createdAt,value
2022-09-28T00:00:49.096Z,1.35
2022-09-28T00:01:53.672Z,1.50
2022-09-28T00:02:58.326Z,1.40
2022-09-28T00:03:59.990Z,1.50
2022-09-28T00:05:02.408Z,1.35
2022-09-28T00:06:07.241Z,1.40
2022-09-28T00:07:08.768Z,1.48
2022-09-28T00:08:10.167Z,1.50
2022-09-28T00:09:11.642Z,1.67
2022-09-28T00:10:13.125Z,1.35
2022-09-28T00:11:15.724Z,1.40
2022-09-28T00:12:17.137Z,1.40
2022-09-28T00:13:18.633Z,1.50
2022-09-28T00:14:21.168Z,1.50
2022-09-28T00:15:24.423Z,1.30
2022-09-28T00:16:28.912Z,1.25
2022-09-28T00:17:30.408Z,1.30
2022-09-28T00:18:32.295Z,1.50
2022-09-28T00:19:34.240Z,1.50
2022-09-28T00:20:35.652Z,1.30
2022-09-28T00:21:39.097Z,1.50
2022-09-28T00:22:40.543Z,1.45
2022-09-28T00:24:01.201Z,1.40
2022-09-28T00:25:02.710Z,1.52
2022-09-28T00:26:05.653Z,1.60
2022-09-28T00:28:08.951Z,1.30
2022-09-28T00:29:16.609Z,1.40
2022-09-28T00:30:18.276Z,1.42
2022-09-28T00:31:20.349Z,1.33
2022-09-28T00:32:24.596Z,1.40
2022-09-28T00:33:26.013Z,1.30
2022-09-28T00:34:31.264Z,1.40
2022-09-28T00:35:32.706Z,1.40
2022-09-28T00:36:35.250Z,1.50
2022-09-28T00:37:36.660Z,1.50
2022-09-28T00:38:40.588Z,1.25
2022-09-28T00:39:42.303Z,1.35
2022-09-28T00:40:43.803Z,1.40
2022-09-28T00:41:46.425Z,1.30
2022-09-28T00:42:47.854Z,1.30
2022-09-28T00:43:49.398Z,1.35
2022-09-28T00:44:57.733Z,1.40
2022-09-28T00:46:04.016Z,1.23
2022-09-28T00:47:34.680Z,1.40
2022-09-28T00:48:39.964Z,1.27
2022-09-28T00:50:11.972Z,1.52
2022-09-28T00:51:13.957Z,1.30
2022-09-28T00:52:23.056Z,1.42
2022-09-28T00:54:28.433Z,1.30
2022-09-28T00:55:41.135Z,1.60
2022-09-28T00:56:46.569Z,1.38
2022-09-28T00:57:53.131Z,1.30
2022-09-28T00:58:55.089Z,1.30
2022-09-28T00:59:56.964Z,1.63
2022-09-28T01:00:59.927Z,1.60
2022-09-28T01:03:03.997Z,1.40
2022-09-28T01:04:06.384Z,1.50
2022-09-28T01:05:10.366Z,1.30
2022-09-28T01:06:18.558Z,1.35
2022-09-28T01:07:21.504Z,1.40
2022-09-28T01:08:25.008Z,1.60
2022-09-28T01:09:27.658Z,1.30
2022-09-28T01:10:31.105Z,1.35
2022-09-28T01:11:34.244Z,1.35
2022-09-28T01:12:35.853Z,1.38
2022-09-28T01:13:38.169Z,1.30
2022-09-28T01:14:41.191Z,1.40
2022-09-28T01:17:02.741Z,1.35
2022-09-28T01:18:30.028Z,1.30
2022-09-28T01:19:56.485Z,1.60
2022-09-28T01:21:11.086Z,1.50
2022-09-28T01:22:31.783Z,1.50
2022-09-28T01:23:47.807Z,1.70
2022-09-28T01:25:06.706Z,1.40
2022-09-28T01:26:39.445Z,1.63
2022-09-28T01:28:18.249Z,1.50
2022-09-28T01:29:30.450Z,1.30
2022-09-28T01:30:56.751Z,1.50
2022-09-28T01:32:09.395Z,1.50
2022-09-28T01:33:16.274Z,1.33
2022-09-28T01:34:25.428Z,1.50
2022-09-28T01:36:46.707Z,1.40
2022-09-28T01:38:10.492Z,1.35
2022-09-28T01:39:23.952Z,1.48
2022-09-28T01:40:28.899Z,1.50
2022-09-28T01:41:36.552Z,1.50
2022-09-28T01:42:40.258Z,1.48
2022-09-28T01:43:47.599Z,1.30
2022-09-28T01:44:52.538Z,1.30
2022-09-28T01:46:12.366Z,1.40
2022-09-28T01:47:20.145Z,1.23
2022-09-28T01:48:35.292Z,1.30
2022-09-28T01:49:47.151Z,1.25
2022-09-28T01:50:53.560Z,1.10
2022-09-28T01:52:03.620Z,1.17
2022-09-28T01:53:35.079Z,1.20
2022-09-28T01:54:41.860Z,1.10
2022-09-28T01:55:47.983Z,1.10
2022-09-28T01:56:55.911Z,1.10
2022-09-28T01:58:07.582Z,1.30
2022-09-28T01:59:41.857Z,1.10
2022-09-28T02:00:49.226Z,1.17
2022-09-28T02:02:10.165Z,1.00
2022-09-28T02:03:16.935Z,1.20
2022-09-28T02:04:22.868Z,1.10
2022-09-28T02:05:36.731Z,1.05
2022-09-28T02:06:48.038Z,1.10
2022-09-28T02:08:07.307Z,1.00
2022-09-28T02:09:13.929Z,1.00
2022-09-28T02:10:21.838Z,1.02
2022-09-28T02:11:23.817Z,1.10
2022-09-28T02:12:33.816Z,1.13
2022-09-28T02:13:44.248Z,1.00
2022-09-28T02:14:49.377Z,1.02
2022-09-28T02:15:58.556Z,1.00
2022-09-28T02:17:00.141Z,1.15
2022-09-28T02:18:01.893Z,1.25
2022-09-28T02:19:04.580Z,1.10
2022-09-28T02:20:07.477Z,0.90
2022-09-28T02:21:26.356Z,1.17
2022-09-28T02:22:44.132Z,1.00
2022-09-28T02:23:57.250Z,1.35
2022-09-28T02:25:06.135Z,1.23
2022-09-28T02:26:11.958Z,1.10
2022-09-28T02:27:18.640Z,1.00
2022-09-28T02:28:20.123Z,1.02
2022-09-28T02:29:21.539Z,1.40
2022-09-28T02:30:23.012Z,1.33
2022-09-28T02:31:24.603Z,1.20
2022-09-28T02:32:29.976Z,0.98
2022-09-28T02:33:36.573Z,1.10
2022-09-28T02:34:38.089Z,1.23
2022-09-28T02:35:41.429Z,0.98
2022-09-28T02:36:44.990Z,1.20
2022-09-28T02:37:47.354Z,1.10
2022-09-28T02:38:48.808Z,1.30
2022-09-28T02:39:50.365Z,1.00
2022-09-28T02:41:05.356Z,1.20
2022-09-28T02:42:24.392Z,1.10
2022-09-28T02:43:56.987Z,1.10
2022-09-28T02:45:11.739Z,1.20
2022-09-28T02:46:28.606Z,1.08
2022-09-28T02:47:33.217Z,1.00
2022-09-28T02:48:55.772Z,1.23
2022-09-28T02:50:20.672Z,1.20
2022-09-28T02:51:42.810Z,1.10
2022-09-28T02:53:09.542Z,1.30
2022-09-28T02:54:41.253Z,1.20
2022-09-28T02:56:11.976Z,1.15
2022-09-28T02:57:45.591Z,1.10
2022-09-28T02:58:47.907Z,1.33
2022-09-28T03:00:10.324Z,1.00
2022-09-28T03:01:44.195Z,1.00
2022-09-28T03:03:04.241Z,1.10
2022-09-28T03:04:18.715Z,1.25
2022-09-28T03:05:30.011Z,1.20
2022-09-28T03:06:45.683Z,1.10
2022-09-28T03:07:49.702Z,1.02
2022-09-28T03:09:07.065Z,0.95
2022-09-28T03:10:32.748Z,1.10
2022-09-28T03:11:39.129Z,1.30
2022-09-28T03:12:43.489Z,1.00
2022-09-28T03:13:45.251Z,1.20
2022-09-28T03:14:46.856Z,1.17
2022-09-28T03:15:53.309Z,1.20
2022-09-28T03:16:54.730Z,1.02
2022-09-28T03:17:57.834Z,1.20
2022-09-28T03:18:59.262Z,1.08
2022-09-28T03:20:00.893Z,1.10
2022-09-28T03:21:04.282Z,1.00
2022-09-28T03:22:06.057Z,1.20
2022-09-28T03:23:23.979Z,1.15
2022-09-28T03:24:26.407Z,1.00
2022-09-28T03:25:28.052Z,1.00
2022-09-28T03:26:29.456Z,1.05
2022-09-28T03:27:31.035Z,1.17
2022-09-28T03:28:36.243Z,0.90
2022-09-28T03:29:38.597Z,1.00
2022-09-28T03:30:40.038Z,0.75
2022-09-28T03:31:41.501Z,1.08
2022-09-28T03:32:42.975Z,1.35
2022-09-28T03:33:44.476Z,1.00
2022-09-28T03:34:45.903Z,1.13
2022-09-28T03:35:49.069Z,0.95
2022-09-28T03:36:50.491Z,1.20
2022-09-28T03:37:56.543Z,1.20
2022-09-28T03:38:59.547Z,1.02
2022-09-28T03:41:02.697Z,1.05
2022-09-28T03:42:04.600Z,1.20
2022-09-28T03:43:05.983Z,1.00
2022-09-28T03:44:07.417Z,1.00
2022-09-28T03:45:09.262Z,1.00
2022-09-28T03:46:10.763Z,1.23
2022-09-28T03:47:12.858Z,1.20
2022-09-28T03:48:14.256Z,1.20
2022-09-28T03:49:15.789Z,1.02
2022-09-28T03:50:17.303Z,1.17
2022-09-28T03:51:18.714Z,1.20
2022-09-28T03:52:20.508Z,1.17
2022-09-28T03:53:22.684Z,1.45
2022-09-28T03:54:24.123Z,1.00
2022-09-28T03:55:25.612Z,1.10
2022-09-28T03:56:27.039Z,1.00
2022-09-28T03:57:28.807Z,1.00
2022-09-28T03:58:30.318Z,1.10
2022-09-28T03:59:31.813Z,1.30
2022-09-28T04:00:33.218Z,1.23
2022-09-28T04:01:34.765Z,1.10
2022-09-28T04:02:36.332Z,1.20
2022-09-28T04:03:37.941Z,1.23
2022-09-28T04:04:39.441Z,1.15
2022-09-28T04:05:50.079Z,1.58
2022-09-28T04:06:51.817Z,1.23
2022-09-28T04:07:56.134Z,1.23
2022-09-28T04:08:57.652Z,0.98
2022-09-28T04:09:59.102Z,1.10
2022-09-28T04:11:01.676Z,1.10
2022-09-28T04:12:04.602Z,1.10
2022-09-28T04:15:09.350Z,1.00
2022-09-28T04:16:11.748Z,1.10
2022-09-28T04:17:13.565Z,1.20
2022-09-28T04:18:14.988Z,0.95
2022-09-28T04:19:16.600Z,1.10
2022-09-28T04:20:18.363Z,1.00
2022-09-28T04:21:20.918Z,1.00
2022-09-28T04:22:23.339Z,1.08
2022-09-28T04:23:25.077Z,1.13
2022-09-28T04:24:26.619Z,1.13
2022-09-28T04:25:28.123Z,1.23
2022-09-28T04:26:29.576Z,1.50
2022-09-28T04:27:50.080Z,1.20
2022-09-28T04:29:10.227Z,1.70
2022-09-28T04:30:11.802Z,1.15
2022-09-28T04:31:16.766Z,1.15
2022-09-28T04:32:18.603Z,1.35
2022-09-28T04:33:20.000Z,0.98
2022-09-28T04:34:22.810Z,1.23
2022-09-28T04:35:26.860Z,1.40
2022-09-28T04:36:28.263Z,1.35
2022-09-28T04:37:31.555Z,1.60
2022-09-28T04:38:51.719Z,1.20
2022-09-28T04:39:54.114Z,1.23
2022-09-28T04:40:55.574Z,1.15
2022-09-28T04:41:57.185Z,1.10
2022-09-28T04:42:58.956Z,1.20
2022-09-28T04:44:00.447Z,1.20
2022-09-28T04:45:02.261Z,1.08
2022-09-28T04:46:06.226Z,1.10
2022-09-28T04:47:08.054Z,1.20
2022-09-28T04:48:09.481Z,1.30
2022-09-28T04:49:11.287Z,1.38
2022-09-28T04:50:12.814Z,1.20
2022-09-28T04:51:14.496Z,1.20
2022-09-28T04:52:18.461Z,1.30
2022-09-28T04:53:20.346Z,1.27
2022-09-28T04:54:21.852Z,1.30
2022-09-28T04:55:23.544Z,1.23
2022-09-28T04:56:24.968Z,1.10
2022-09-28T04:57:26.975Z,1.20
2022-09-28T04:58:29.361Z,1.10
2022-09-28T04:59:30.788Z,1.17
2022-09-28T05:00:35.893Z,1.05
2022-09-28T05:01:37.781Z,0.93
2022-09-28T05:02:39.342Z,1.13
2022-09-28T05:03:41.060Z,1.00
2022-09-28T05:04:42.602Z,1.17
2022-09-28T05:05:48.940Z,1.20
2022-09-28T05:06:50.432Z,1.10
2022-09-28T05:07:52.195Z,1.05
2022-09-28T05:08:53.962Z,1.17
2022-09-28T05:09:55.897Z,1.17
2022-09-28T05:10:59.771Z,1.20
2022-09-28T05:12:01.427Z,1.00
2022-09-28T05:13:03.282Z,1.10
2022-09-28T05:14:05.774Z,1.27
2022-09-28T05:15:07.580Z,1.15
2022-09-28T05:16:10.022Z,1.10
2022-09-28T05:17:11.515Z,1.20
2022-09-28T05:18:14.148Z,1.52
2022-09-28T05:19:15.844Z,1.10
2022-09-28T05:20:17.316Z,1.20
2022-09-28T05:21:20.270Z,1.10
2022-09-28T05:23:23.359Z,1.45
2022-09-28T05:24:24.789Z,2.55
2022-09-28T05:25:26.464Z,2.92
2022-09-28T05:26:27.879Z,3.40
2022-09-28T05:27:29.708Z,2.58
2022-09-28T05:28:33.299Z,1.50
2022-09-28T05:29:34.765Z,1.30
2022-09-28T05:30:36.628Z,1.20
2022-09-28T05:31:38.095Z,1.13
2022-09-28T05:32:47.352Z,1.30
2022-09-28T05:33:49.187Z,1.10
2022-09-28T05:34:50.670Z,1.27
2022-09-28T05:35:55.153Z,1.50
2022-09-28T05:36:58.788Z,1.30
2022-09-28T05:38:05.395Z,1.20
2022-09-28T05:39:06.838Z,1.20
2022-09-28T05:40:09.104Z,1.17
2022-09-28T05:41:10.532Z,1.27
2022-09-28T05:42:12.084Z,1.30
2022-09-28T05:43:13.535Z,1.10
2022-09-28T05:44:15.161Z,1.20
2022-09-28T05:45:16.814Z,1.20
2022-09-28T05:46:18.585Z,1.20
2022-09-28T05:47:20.187Z,1.30
2022-09-28T05:48:21.645Z,1.40
2022-09-28T05:49:23.122Z,1.30
2022-09-28T05:50:24.815Z,1.20
2022-09-28T05:51:26.494Z,1.30
2022-09-28T05:52:28.320Z,1.25
2022-09-28T05:53:29.862Z,1.30
2022-09-28T05:54:31.347Z,1.38
2022-09-28T05:55:33.234Z,1.40
2022-09-28T05:56:34.845Z,1.48
2022-09-28T05:57:37.115Z,1.30
2022-09-28T05:58:38.579Z,1.60
2022-09-28T05:59:40.299Z,1.30
2022-09-28T06:00:42.682Z,1.50
2022-09-28T06:01:44.587Z,1.50
2022-09-28T06:02:56.076Z,1.55
2022-09-28T06:03:57.472Z,1.40
2022-09-28T06:04:58.886Z,1.65
2022-09-28T06:06:02.140Z,1.70
2022-09-28T06:07:03.891Z,1.50
2022-09-28T06:08:08.246Z,1.40
2022-09-28T06:09:09.966Z,1.52
2022-09-28T06:10:11.394Z,1.60
2022-09-28T06:11:12.841Z,1.88
2022-09-28T06:12:16.242Z,1.63
2022-09-28T06:13:17.623Z,1.55
2022-09-28T06:14:19.065Z,1.70
2022-09-28T06:15:21.603Z,1.45
2022-09-28T06:16:23.701Z,1.70
2022-09-28T06:17:25.673Z,1.60
2022-09-28T06:18:27.092Z,1.67
2022-09-28T06:19:28.536Z,1.80
2022-09-28T06:20:32.551Z,1.67
2022-09-28T06:21:34.404Z,1.48
2022-09-28T06:22:35.796Z,1.67
2022-09-28T06:23:37.222Z,1.52
2022-09-28T06:24:38.672Z,1.73
2022-09-28T06:25:40.778Z,1.60
2022-09-28T06:26:42.568Z,1.65
2022-09-28T06:27:44.016Z,1.40
2022-09-28T06:28:45.475Z,1.50
2022-09-28T06:29:46.861Z,1.25
2022-09-28T06:30:48.392Z,1.50
2022-09-28T06:31:50.186Z,1.40
2022-09-28T06:32:59.671Z,1.52
2022-09-28T06:34:01.755Z,1.30
2022-09-28T06:35:03.323Z,1.48
2022-09-28T06:36:04.971Z,1.25
2022-09-28T06:37:06.710Z,1.55
2022-09-28T06:38:08.512Z,1.40
2022-09-28T06:39:09.891Z,1.50
2022-09-28T06:40:11.306Z,1.30
2022-09-28T06:41:13.340Z,1.45
2022-09-28T06:42:17.069Z,1.30
2022-09-28T06:43:18.984Z,1.40
2022-09-28T06:44:20.438Z,1.33
2022-09-28T06:45:25.249Z,1.33
2022-09-28T06:46:27.530Z,1.20
2022-09-28T06:47:28.959Z,1.50
2022-09-28T06:48:33.423Z,1.15
2022-09-28T06:49:34.948Z,1.20
2022-09-28T06:50:39.711Z,1.20
2022-09-28T06:51:41.125Z,1.30
2022-09-28T06:52:42.546Z,1.15
2022-09-28T06:53:43.942Z,1.23
2022-09-28T06:54:45.378Z,1.20
2022-09-28T06:55:50.531Z,1.20
2022-09-28T06:56:53.632Z,1.50
2022-09-28T06:58:06.408Z,1.02
2022-09-28T06:59:07.806Z,1.10
2022-09-28T07:00:10.496Z,1.10
2022-09-28T07:01:12.459Z,1.10
2022-09-28T07:02:14.524Z,0.90
2022-09-28T07:03:19.910Z,0.93
2022-09-28T07:04:21.366Z,1.00
2022-09-28T07:05:26.717Z,1.00
2022-09-28T07:06:29.155Z,0.98
2022-09-28T07:07:31.338Z,1.00
2022-09-28T07:08:32.865Z,0.90
2022-09-28T07:09:37.276Z,1.00
2022-09-28T07:10:45.055Z,1.00
2022-09-28T07:11:46.617Z,0.90
2022-09-28T07:12:47.999Z,1.10
2022-09-28T07:13:51.139Z,1.10
2022-09-28T07:14:57.211Z,0.90
2022-09-28T07:16:02.625Z,0.90
2022-09-28T07:17:13.839Z,1.05
2022-09-28T07:18:16.055Z,1.10
2022-09-28T07:19:17.501Z,1.05
2022-09-28T07:20:19.726Z,0.80
2022-09-28T07:21:29.780Z,0.95
2022-09-28T07:22:41.882Z,0.80
2022-09-28T07:23:52.224Z,1.13
2022-09-28T07:24:55.124Z,1.10
2022-09-28T07:25:58.213Z,0.90
2022-09-28T07:27:00.024Z,1.00
2022-09-28T07:28:02.954Z,1.00
2022-09-28T07:30:07.029Z,1.00
2022-09-28T07:31:09.977Z,1.00
2022-09-28T07:34:17.395Z,1.10
2022-09-28T07:36:21.222Z,1.00
2022-09-28T07:37:24.179Z,1.13
2022-09-28T07:39:27.443Z,1.10
2022-09-28T07:40:59.619Z,1.08
2022-09-28T07:42:03.015Z,1.00
2022-09-28T07:43:05.706Z,1.10
2022-09-28T07:44:07.434Z,1.00
2022-09-28T07:45:09.288Z,1.02
2022-09-28T07:46:13.712Z,0.90
2022-09-28T07:47:15.508Z,1.00
2022-09-28T07:48:18.812Z,0.90
2022-09-28T07:49:22.423Z,1.00
2022-09-28T07:50:23.906Z,1.10
2022-09-28T07:51:25.920Z,1.00
2022-09-28T07:52:28.734Z,1.10
2022-09-28T07:53:30.983Z,1.00
2022-09-28T07:54:32.364Z,1.00
2022-09-28T07:55:34.382Z,0.90
2022-09-28T07:56:36.146Z,0.80
2022-09-28T07:57:37.604Z,0.90
2022-09-28T07:58:39.583Z,0.90
2022-09-28T07:59:40.970Z,0.80
2022-09-28T08:00:42.496Z,1.00
2022-09-28T08:01:44.378Z,1.00
2022-09-28T08:02:45.894Z,0.93
2022-09-28T08:03:47.968Z,0.90
2022-09-28T08:04:50.299Z,1.00
2022-09-28T08:05:51.780Z,0.70
2022-09-28T08:06:53.609Z,0.90
2022-09-28T08:07:57.801Z,1.00
2022-09-28T08:09:00.704Z,0.90
2022-09-28T08:10:02.114Z,0.90
2022-09-28T08:11:06.822Z,0.80
2022-09-28T08:12:08.999Z,0.70
2022-09-28T08:13:10.435Z,1.00
2022-09-28T08:14:11.886Z,0.82
2022-09-28T08:15:13.327Z,0.77
2022-09-28T08:16:15.163Z,0.90
2022-09-28T08:17:16.855Z,0.90
2022-09-28T08:18:18.997Z,1.00
2022-09-28T08:19:20.399Z,1.00
2022-09-28T08:20:41.039Z,1.00
2022-09-28T08:21:45.522Z,0.80
2022-09-28T08:22:46.924Z,0.75
2022-09-28T08:23:48.376Z,0.90
2022-09-28T08:24:49.814Z,0.80
2022-09-28T08:25:54.764Z,0.93
2022-09-28T08:26:57.429Z,1.00
2022-09-28T08:27:58.983Z,0.95
2022-09-28T08:29:00.363Z,0.90
2022-09-28T08:30:01.760Z,1.00
2022-09-28T08:31:03.350Z,0.75
2022-09-28T08:32:08.187Z,0.90
2022-09-28T08:33:09.726Z,0.90
2022-09-28T08:34:11.386Z,0.98
2022-09-28T08:35:13.243Z,0.90
2022-09-28T08:36:14.687Z,1.00
2022-09-28T08:37:16.467Z,0.88
2022-09-28T08:38:18.335Z,0.90
2022-09-28T08:39:19.804Z,0.90
2022-09-28T08:40:24.830Z,1.00
2022-09-28T08:41:51.315Z,1.08
2022-09-28T08:42:58.050Z,0.95
2022-09-28T08:44:14.514Z,1.13
2022-09-28T08:45:31.515Z,1.00
2022-09-28T08:46:41.262Z,1.00
2022-09-28T08:48:08.521Z,0.80
2022-09-28T08:49:32.580Z,1.10
2022-09-28T08:50:41.637Z,0.90
2022-09-28T08:51:57.413Z,0.95
2022-09-28T08:53:05.594Z,0.90
2022-09-28T08:54:35.675Z,0.95
2022-09-28T08:55:39.592Z,0.90
2022-09-28T08:56:47.419Z,1.00
2022-09-28T08:57:53.340Z,0.90
2022-09-28T08:58:59.824Z,0.90
2022-09-28T09:00:02.558Z,1.00
2022-09-28T09:01:07.479Z,0.85
2022-09-28T09:02:18.399Z,0.82
2022-09-28T09:03:35.919Z,0.80
2022-09-28T09:04:37.556Z,1.10
2022-09-28T09:06:03.709Z,0.90
2022-09-28T09:07:43.137Z,0.98
2022-09-28T09:09:09.229Z,0.80
2022-09-28T09:10:47.014Z,0.85
2022-09-28T09:11:57.283Z,1.02
2022-09-28T09:13:19.070Z,0.80
2022-09-28T09:14:32.211Z,0.80
2022-09-28T09:15:57.529Z,0.90
2022-09-28T09:17:34.647Z,1.30
2022-09-28T09:19:00.132Z,1.00
2022-09-28T09:20:25.565Z,0.95
2022-09-28T09:21:41.961Z,1.00
2022-09-28T09:23:00.769Z,1.00
2022-09-28T09:24:27.853Z,1.00
2022-09-28T09:25:45.955Z,1.10
2022-09-28T09:26:52.856Z,1.00
2022-09-28T09:28:03.311Z,0.98
2022-09-28T09:29:19.956Z,1.15
2022-09-28T09:30:30.241Z,1.00
2022-09-28T09:31:54.771Z,0.90
2022-09-28T09:33:08.417Z,1.00
2022-09-28T09:34:19.081Z,0.90
2022-09-28T09:35:40.882Z,0.90
2022-09-28T09:37:07.885Z,1.00
2022-09-28T09:38:43.497Z,0.98
2022-09-28T09:40:07.377Z,1.00
2022-09-28T09:41:36.416Z,0.90
2022-09-28T09:43:05.763Z,0.90
2022-09-28T09:44:28.597Z,1.00
2022-09-28T09:45:43.394Z,1.00
2022-09-28T09:47:02.323Z,1.08
2022-09-28T09:48:11.127Z,1.10
2022-09-28T09:49:26.879Z,1.00
2022-09-28T09:50:39.442Z,1.00
2022-09-28T09:52:00.561Z,1.13
2022-09-28T09:53:11.896Z,1.17
2022-09-28T09:54:26.791Z,1.00
2022-09-28T09:55:37.181Z,0.95
2022-09-28T09:56:55.273Z,0.90
2022-09-28T09:58:00.085Z,1.00
2022-09-28T09:59:14.019Z,0.90
2022-09-28T10:00:16.679Z,1.00
2022-09-28T10:01:22.926Z,1.00
2022-09-28T10:02:35.422Z,0.90
2022-09-28T10:03:42.200Z,1.10
2022-09-28T10:04:46.687Z,0.98
2022-09-28T10:06:06.887Z,0.90
2022-09-28T10:07:19.096Z,1.00
2022-09-28T10:08:23.731Z,1.00
2022-09-28T10:09:34.789Z,1.10
2022-09-28T10:10:51.461Z,0.90
2022-09-28T10:11:54.358Z,1.02
2022-09-28T10:12:56.416Z,1.27
2022-09-28T10:13:58.414Z,1.00
2022-09-28T10:15:02.767Z,1.20
2022-09-28T10:16:06.161Z,0.95
2022-09-28T10:17:07.685Z,1.00
2022-09-28T10:18:15.279Z,1.00
2022-09-28T10:19:19.490Z,1.02
2022-09-28T10:20:22.981Z,1.10
2022-09-28T10:21:25.362Z,1.10
2022-09-28T10:22:28.732Z,0.90
2022-09-28T10:23:34.172Z,1.10
2022-09-28T10:24:41.335Z,1.10
2022-09-28T10:25:45.154Z,0.80
2022-09-28T10:26:50.748Z,0.70
2022-09-28T10:27:52.480Z,0.90
2022-09-28T10:29:21.311Z,0.90
2022-09-28T10:30:25.118Z,0.80
2022-09-28T10:31:36.027Z,0.70
2022-09-28T10:32:49.073Z,0.55
2022-09-28T10:33:53.350Z,0.73
2022-09-28T10:35:21.592Z,0.80
2022-09-28T10:36:26.240Z,0.90
2022-09-28T10:37:28.172Z,0.80
2022-09-28T10:38:30.876Z,0.70
2022-09-28T10:39:36.893Z,0.60
2022-09-28T10:40:51.605Z,0.77
2022-09-28T10:41:54.290Z,0.90
2022-09-28T10:43:05.182Z,0.77
2022-09-28T10:44:06.977Z,0.77
2022-09-28T10:45:31.604Z,0.70
2022-09-28T10:46:37.579Z,0.80
2022-09-28T10:47:44.753Z,0.80
2022-09-28T10:48:56.416Z,0.90
2022-09-28T10:49:59.115Z,0.80
2022-09-28T10:51:05.712Z,0.70
2022-09-28T10:52:31.793Z,0.90
2022-09-28T10:53:37.221Z,1.00
2022-09-28T10:54:52.992Z,0.90
2022-09-28T10:56:03.910Z,0.90
2022-09-28T10:57:27.329Z,0.80
2022-09-28T10:58:40.661Z,0.80
2022-09-28T10:59:42.310Z,0.90
2022-09-28T11:00:44.979Z,0.80
2022-09-28T11:01:46.977Z,0.88
2022-09-28T11:02:48.610Z,0.93
2022-09-28T11:04:03.564Z,0.70
2022-09-28T11:05:07.267Z,0.82
2022-09-28T11:06:09.122Z,0.80
2022-09-28T11:07:32.617Z,1.00
2022-09-28T11:08:45.755Z,1.00
2022-09-28T11:09:49.488Z,1.00
2022-09-28T11:11:08.851Z,1.05
2022-09-28T11:12:15.949Z,1.00
2022-09-28T11:13:17.377Z,1.00
2022-09-28T11:14:30.110Z,0.80
2022-09-28T11:15:33.352Z,0.80
2022-09-28T11:16:38.820Z,1.10
2022-09-28T11:17:44.457Z,0.98
2022-09-28T11:18:45.893Z,0.80
2022-09-28T11:19:47.335Z,0.80
2022-09-28T11:20:49.529Z,0.70
2022-09-28T11:21:51.383Z,1.00
2022-09-28T11:22:55.679Z,0.82
2022-09-28T11:24:07.018Z,0.80
2022-09-28T11:25:17.446Z,0.90
2022-09-28T11:26:19.137Z,0.85
2022-09-28T11:27:26.090Z,0.80
2022-09-28T11:28:35.925Z,0.82
2022-09-28T11:29:41.754Z,0.80
2022-09-28T11:30:58.024Z,0.80
2022-09-28T11:32:03.302Z,1.10
2022-09-28T11:33:15.083Z,0.90
2022-09-28T11:34:36.532Z,3.17
2022-09-28T11:36:05.101Z,2.30
2022-09-28T11:37:31.590Z,1.10
2022-09-28T11:38:39.584Z,1.00
2022-09-28T11:39:43.904Z,1.67
2022-09-28T11:41:20.578Z,0.90
2022-09-28T11:42:28.352Z,0.90
2022-09-28T11:43:55.841Z,0.90
2022-09-28T11:46:19.721Z,0.63
2022-09-28T11:47:32.032Z,0.80
2022-09-28T11:48:44.060Z,0.85
2022-09-28T11:49:52.405Z,0.73
2022-09-28T11:51:03.818Z,0.90
2022-09-28T11:52:23.130Z,0.80
2022-09-28T11:53:34.673Z,0.80
2022-09-28T11:54:44.383Z,0.75
2022-09-28T11:56:07.924Z,0.80
2022-09-28T11:57:20.899Z,0.70
2022-09-28T11:58:37.636Z,0.70
2022-09-28T11:59:52.362Z,1.00
2022-09-28T12:01:18.595Z,1.23
2022-09-28T12:02:30.187Z,0.80
2022-09-28T12:03:42.658Z,0.95
2022-09-28T12:04:52.168Z,0.80
2022-09-28T12:06:01.124Z,0.73
2022-09-28T12:07:23.709Z,0.80
2022-09-28T12:08:30.230Z,0.90
2022-09-28T12:09:40.443Z,0.80
2022-09-28T12:10:57.209Z,0.80
2022-09-28T12:12:02.774Z,1.83
2022-09-28T12:13:11.978Z,1.33
2022-09-28T12:14:21.652Z,1.52
2022-09-28T12:15:38.187Z,0.82
2022-09-28T12:17:08.254Z,0.77
2022-09-28T12:18:32.967Z,0.73
2022-09-28T12:20:00.179Z,0.90
2022-09-28T12:21:21.789Z,0.70
2022-09-28T12:22:30.173Z,0.70
2022-09-28T12:23:35.748Z,0.70
2022-09-28T12:24:42.444Z,0.60
2022-09-28T12:26:21.124Z,0.70
2022-09-28T12:27:25.544Z,0.70
2022-09-28T12:28:37.217Z,0.77
2022-09-28T12:29:41.635Z,0.90
2022-09-28T12:30:45.985Z,0.90
2022-09-28T12:31:58.294Z,0.70
2022-09-28T12:33:12.485Z,0.90
2022-09-28T12:34:13.974Z,0.70
2022-09-28T12:35:50.894Z,0.60
2022-09-28T12:36:55.108Z,0.82
2022-09-28T12:38:09.161Z,0.70
2022-09-28T12:39:31.043Z,0.80
2022-09-28T12:40:58.611Z,0.75
2022-09-28T12:42:12.931Z,0.70
2022-09-28T12:43:33.703Z,1.00
2022-09-28T12:44:59.830Z,0.80
2022-09-28T12:46:22.382Z,0.80
2022-09-28T12:47:57.511Z,0.65
2022-09-28T12:51:29.589Z,0.70
2022-09-28T12:53:03.161Z,0.70
2022-09-28T12:54:25.412Z,0.68
2022-09-28T12:55:56.462Z,0.75
2022-09-28T12:57:30.098Z,0.70
2022-09-28T12:59:01.098Z,0.80
2022-09-28T13:00:08.846Z,0.60
2022-09-28T13:01:23.169Z,0.90
2022-09-28T13:02:41.990Z,0.80
2022-09-28T13:04:04.850Z,0.77
2022-09-28T13:05:12.270Z,1.52
2022-09-28T13:06:19.626Z,2.33
2022-09-28T13:07:33.350Z,1.00
2022-09-28T13:08:40.838Z,0.82
2022-09-28T13:09:49.684Z,0.77
2022-09-28T13:11:09.856Z,0.60
2022-09-28T13:12:20.890Z,0.80
2022-09-28T13:14:06.298Z,0.80
2022-09-28T13:15:27.814Z,0.80
2022-09-28T13:16:46.019Z,0.70
2022-09-28T13:18:12.934Z,0.80
2022-09-28T13:19:25.398Z,0.68
2022-09-28T13:20:35.853Z,0.57
2022-09-28T13:22:03.779Z,0.70
2022-09-28T13:23:16.118Z,0.70
2022-09-28T13:24:32.619Z,0.98
2022-09-28T13:25:40.273Z,0.70
2022-09-28T13:26:45.596Z,0.70
2022-09-28T13:28:03.569Z,0.80
2022-09-28T13:29:11.716Z,0.70
2022-09-28T13:30:15.277Z,0.60
2022-09-28T13:31:24.374Z,0.80
2022-09-28T13:32:29.920Z,0.70
2022-09-28T13:33:39.050Z,0.50
2022-09-28T13:34:40.642Z,0.60
2022-09-28T13:35:44.003Z,0.75
2022-09-28T13:36:48.149Z,0.70
2022-09-28T13:38:16.583Z,0.60
2022-09-28T13:39:44.120Z,0.60
2022-09-28T13:41:06.148Z,0.63
2022-09-28T13:42:09.592Z,0.63
2022-09-28T13:43:29.976Z,0.80
2022-09-28T13:45:05.288Z,0.60
2022-09-28T13:46:20.716Z,0.52
2022-09-28T13:47:42.146Z,0.70
2022-09-28T13:48:59.123Z,0.77
2022-09-28T13:50:17.777Z,0.52
2022-09-28T13:51:38.124Z,0.80
2022-09-28T13:52:55.207Z,0.60
2022-09-28T13:53:56.933Z,0.80
2022-09-28T13:55:12.492Z,0.77
2022-09-28T13:56:21.225Z,0.70
2022-09-28T13:57:31.867Z,0.63
2022-09-28T13:58:58.470Z,0.68
2022-09-28T14:00:29.005Z,0.80
2022-09-28T14:01:37.710Z,0.70
2022-09-28T14:02:48.005Z,0.80
2022-09-28T14:04:11.805Z,0.70
2022-09-28T14:05:53.352Z,1.05
2022-09-28T14:06:59.664Z,0.70
2022-09-28T14:08:33.985Z,0.70
2022-09-28T14:10:07.828Z,0.70
2022-09-28T14:11:27.453Z,0.50
2022-09-28T14:12:35.060Z,0.82
2022-09-28T14:13:42.963Z,1.00
2022-09-28T14:14:51.021Z,0.70
2022-09-28T14:15:52.529Z,0.70
2022-09-28T14:17:19.939Z,0.80
2022-09-28T14:19:34.038Z,0.80
2022-09-28T14:20:36.828Z,0.90
2022-09-28T14:22:10.131Z,0.70
2022-09-28T14:23:43.806Z,0.85
2022-09-28T14:25:23.702Z,0.63
2022-09-28T14:26:41.713Z,0.70
2022-09-28T14:28:07.713Z,0.70
2022-09-28T14:29:20.690Z,0.90
2022-09-28T14:30:26.115Z,0.80
2022-09-28T14:31:29.404Z,0.75
2022-09-28T14:32:37.431Z,0.80
2022-09-28T14:33:43.106Z,0.80
2022-09-28T14:34:56.503Z,0.70
2022-09-28T14:36:02.151Z,0.70
2022-09-28T14:37:36.564Z,0.63
2022-09-28T14:39:07.593Z,0.90
2022-09-28T14:40:55.063Z,2.90
2022-09-28T14:41:56.632Z,3.58
2022-09-28T14:43:24.404Z,1.73
2022-09-28T14:44:25.879Z,0.88
2022-09-28T14:45:36.285Z,0.70
2022-09-28T14:46:43.348Z,0.80
2022-09-28T14:48:05.486Z,0.63
2022-09-28T14:49:19.866Z,0.80
2022-09-28T14:50:25.382Z,0.80
2022-09-28T14:51:26.831Z,0.82
2022-09-28T14:52:40.360Z,0.70
2022-09-28T14:53:42.001Z,0.82
2022-09-28T14:54:52.666Z,0.70
2022-09-28T14:55:57.638Z,0.80
2022-09-28T14:57:17.320Z,0.85
2022-09-28T14:58:28.477Z,0.70
2022-09-28T14:59:36.006Z,0.70
2022-09-28T15:00:39.090Z,0.60
2022-09-28T15:01:43.221Z,0.70
2022-09-28T15:02:49.876Z,0.80
2022-09-28T15:03:54.631Z,0.80
2022-09-28T15:05:02.534Z,0.70
2022-09-28T15:06:04.222Z,0.68
2022-09-28T15:07:05.638Z,0.70
2022-09-28T15:08:07.991Z,0.73
2022-09-28T15:09:29.984Z,0.60
2022-09-28T15:10:39.121Z,0.60
2022-09-28T15:11:41.634Z,0.90
2022-09-28T15:12:43.717Z,0.60
2022-09-28T15:13:46.286Z,0.70
2022-09-28T15:14:51.277Z,0.70
2022-09-28T15:16:13.578Z,0.70
2022-09-28T15:17:26.185Z,0.68
2022-09-28T15:19:04.768Z,0.47
2022-09-28T15:20:32.357Z,0.60
2022-09-28T15:21:36.487Z,0.63
2022-09-28T15:22:45.682Z,0.57
2022-09-28T15:23:48.374Z,0.88
2022-09-28T15:25:02.400Z,0.77
2022-09-28T15:26:09.000Z,0.70
2022-09-28T15:27:15.498Z,0.60
2022-09-28T15:28:22.452Z,0.50
2022-09-28T15:29:27.352Z,0.70
2022-09-28T15:30:31.736Z,0.70
2022-09-28T15:31:35.823Z,0.60
2022-09-28T15:32:37.310Z,0.77
2022-09-28T15:34:00.692Z,0.90